sensor_id;sensor_type;location;lat;lon;timestamp;pressure;altitude;pressure_sealevel;temperature;humidity
81545;BME280;70990;50.618;7.346;2024-01-15T00:00:49;96938.22;;;0.06;89.00
81545;BME280;70990;50.618;7.346;2024-01-15T00:03:16;96919.16;;;-0.02;88.40
81545;BME280;70990;50.618;7.346;2024-01-15T00:05:43;96921.09;;;-0.02;88.40
81545;BME280;70990;50.618;7.346;2024-01-15T00:08:10;96926.59;;;0.09;88.25
81545;BME280;70990;50.618;7.346;2024-01-15T00:10:36;96923.44;;;-0.01;88.27
81545;BME280;70990;50.618;7.346;2024-01-15T00:13:03;96911.84;;;0.06;86.97
81545;BME280;70990;50.618;7.346;2024-01-15T00:15:29;96903.16;;;-0.10;88.17
81545;BME280;70990;50.618;7.346;2024-01-15T00:17:56;96911.75;;;-0.05;87.34
81545;BME280;70990;50.618;7.346;2024-01-15T00:20:22;96894.72;;;-0.02;87.40
81545;BME280;70990;50.618;7.346;2024-01-15T00:22:49;96887.69;;;-0.06;87.18
81545;BME280;70990;50.618;7.346;2024-01-15T00:25:15;96887.44;;;0.10;87.92
81545;BME280;70990;50.618;7.346;2024-01-15T00:27:42;96890.19;;;0.17;86.74
81545;BME280;70990;50.618;7.346;2024-01-15T00:30:09;96876.50;;;-0.01;86.74
81545;BME280;70990;50.618;7.346;2024-01-15T00:32:35;96871.13;;;0.06;86.88
81545;BME280;70990;50.618;7.346;2024-01-15T00:35:02;96866.03;;;0.01;87.04
81545;BME280;70990;50.618;7.346;2024-01-15T00:37:28;96862.94;;;0.03;86.98
81545;BME280;70990;50.618;7.346;2024-01-15T00:39:55;96870.59;;;-0.14;87.80
81545;BME280;70990;50.618;7.346;2024-01-15T00:42:21;96867.16;;;-0.07;87.13
81545;BME280;70990;50.618;7.346;2024-01-15T00:44:48;96869.13;;;-0.01;87.75
81545;BME280;70990;50.618;7.346;2024-01-15T00:47:14;96871.75;;;-0.11;87.88
81545;BME280;70990;50.618;7.346;2024-01-15T00:49:41;96870.94;;;-0.15;88.38
81545;BME280;70990;50.618;7.346;2024-01-15T00:52:08;96867.47;;;-0.16;89.30
81545;BME280;70990;50.618;7.346;2024-01-15T00:54:34;96859.59;;;-0.28;89.35
81545;BME280;70990;50.618;7.346;2024-01-15T00:57:01;96862.19;;;-0.42;89.76
81545;BME280;70990;50.618;7.346;2024-01-15T00:59:27;96865.13;;;-0.17;90.26
81545;BME280;70990;50.618;7.346;2024-01-15T01:01:54;96859.59;;;-0.28;90.27
81545;BME280;70990;50.618;7.346;2024-01-15T01:04:20;96866.13;;;-0.36;90.49
81545;BME280;70990;50.618;7.346;2024-01-15T01:06:47;96858.81;;;-0.32;91.40
81545;BME280;70990;50.618;7.346;2024-01-15T01:09:13;96846.25;;;-0.47;91.89
81545;BME280;70990;50.618;7.346;2024-01-15T01:11:40;96869.47;;;-0.53;92.22
81545;BME280;70990;50.618;7.346;2024-01-15T01:14:06;96859.41;;;-0.53;93.17
81545;BME280;70990;50.618;7.346;2024-01-15T01:16:33;96861.06;;;-0.37;93.06
81545;BME280;70990;50.618;7.346;2024-01-15T01:18:59;96858.19;;;-0.55;93.33
81545;BME280;70990;50.618;7.346;2024-01-15T01:21:26;96851.56;;;-0.61;93.73
81545;BME280;70990;50.618;7.346;2024-01-15T01:23:52;96847.97;;;-0.72;94.33
81545;BME280;70990;50.618;7.346;2024-01-15T01:26:19;96858.88;;;-0.69;94.05
81545;BME280;70990;50.618;7.346;2024-01-15T01:28:45;96845.75;;;-0.63;94.29
81545;BME280;70990;50.618;7.346;2024-01-15T01:31:12;96854.38;;;-0.51;93.68
81545;BME280;70990;50.618;7.346;2024-01-15T01:33:38;96851.16;;;-0.63;94.03
81545;BME280;70990;50.618;7.346;2024-01-15T01:36:09;96859.41;;;-0.49;94.54
81545;BME280;70990;50.618;7.346;2024-01-15T01:38:37;96865.59;;;-0.52;94.34
81545;BME280;70990;50.618;7.346;2024-01-15T01:41:04;96849.88;;;-0.76;94.65
81545;BME280;70990;50.618;7.346;2024-01-15T01:43:31;96857.06;;;-0.54;93.80
81545;BME280;70990;50.618;7.346;2024-01-15T01:45:57;96871.97;;;-0.30;94.08
81545;BME280;70990;50.618;7.346;2024-01-15T01:48:25;96861.53;;;-0.32;93.48
81545;BME280;70990;50.618;7.346;2024-01-15T01:50:57;96869.69;;;-0.25;92.25
81545;BME280;70990;50.618;7.346;2024-01-15T01:53:26;96865.66;;;-0.45;93.43
81545;BME280;70990;50.618;7.346;2024-01-15T01:55:54;96861.75;;;-0.51;93.30
81545;BME280;70990;50.618;7.346;2024-01-15T01:58:22;96854.75;;;-0.52;93.82
81545;BME280;70990;50.618;7.346;2024-01-15T02:00:49;96856.31;;;-0.51;93.49
81545;BME280;70990;50.618;7.346;2024-01-15T02:03:16;96862.06;;;-0.56;93.55
81545;BME280;70990;50.618;7.346;2024-01-15T02:05:43;96857.53;;;-0.45;94.56
81545;BME280;70990;50.618;7.346;2024-01-15T02:08:09;96856.97;;;-0.61;94.21
81545;BME280;70990;50.618;7.346;2024-01-15T02:10:36;96866.88;;;-0.39;94.33
81545;BME280;70990;50.618;7.346;2024-01-15T02:13:03;96859.97;;;-0.73;94.59
81545;BME280;70990;50.618;7.346;2024-01-15T02:15:29;96858.25;;;-0.52;94.15
81545;BME280;70990;50.618;7.346;2024-01-15T02:18:06;96853.53;;;-0.58;94.03
81545;BME280;70990;50.618;7.346;2024-01-15T02:20:33;96851.06;;;-0.30;92.86
81545;BME280;70990;50.618;7.346;2024-01-15T02:23:13;96845.13;;;-0.46;93.50
81545;BME280;70990;50.618;7.346;2024-01-15T02:25:46;96859.34;;;-0.56;93.46
81545;BME280;70990;50.618;7.346;2024-01-15T02:28:14;96856.97;;;-0.61;92.99
81545;BME280;70990;50.618;7.346;2024-01-15T02:30:42;96869.91;;;-0.48;93.32
81545;BME280;70990;50.618;7.346;2024-01-15T02:33:10;96872.59;;;-0.51;93.12
81545;BME280;70990;50.618;7.346;2024-01-15T02:35:37;96867.03;;;-0.65;93.15
81545;BME280;70990;50.618;7.346;2024-01-15T02:38:05;96870.19;;;-0.56;92.65
81545;BME280;70990;50.618;7.346;2024-01-15T02:40:32;96870.31;;;-0.46;92.63
81545;BME280;70990;50.618;7.346;2024-01-15T02:42:59;96867.59;;;-0.46;92.59
81545;BME280;70990;50.618;7.346;2024-01-15T02:45:27;96875.88;;;-0.28;92.00
81545;BME280;70990;50.618;7.346;2024-01-15T02:47:55;96865.47;;;-0.22;91.68
81545;BME280;70990;50.618;7.346;2024-01-15T02:50:22;96878.41;;;-0.49;92.40
81545;BME280;70990;50.618;7.346;2024-01-15T02:52:49;96871.13;;;-0.42;93.04
81545;BME280;70990;50.618;7.346;2024-01-15T02:55:15;96873.53;;;-0.33;93.08
81545;BME280;70990;50.618;7.346;2024-01-15T02:57:42;96875.81;;;-0.35;93.50
81545;BME280;70990;50.618;7.346;2024-01-15T03:00:10;96864.19;;;-0.39;93.34
81545;BME280;70990;50.618;7.346;2024-01-15T03:02:37;96873.25;;;-0.21;93.59
81545;BME280;70990;50.618;7.346;2024-01-15T03:05:04;96875.19;;;-0.18;93.21
81545;BME280;70990;50.618;7.346;2024-01-15T03:07:30;96873.53;;;-0.33;93.50
81545;BME280;70990;50.618;7.346;2024-01-15T03:09:57;96880.53;;;-0.32;93.75
81545;BME280;70990;50.618;7.346;2024-01-15T03:12:23;96863.47;;;-0.32;92.99
81545;BME280;70990;50.618;7.346;2024-01-15T03:14:50;96860.75;;;-0.29;94.30
81545;BME280;70990;50.618;7.346;2024-01-15T03:17:16;96871.25;;;-0.24;93.71
81545;BME280;70990;50.618;7.346;2024-01-15T03:19:43;96874.63;;;-0.37;93.46
81545;BME280;70990;50.618;7.346;2024-01-15T03:22:10;96850.34;;;-0.67;94.60
81545;BME280;70990;50.618;7.346;2024-01-15T03:24:36;96869.25;;;-0.34;93.36
81545;BME280;70990;50.618;7.346;2024-01-15T03:27:03;96870.47;;;-0.28;93.59
81545;BME280;70990;50.618;7.346;2024-01-15T03:29:29;96861.88;;;-0.33;93.11
81545;BME280;70990;50.618;7.346;2024-01-15T03:31:56;96855.69;;;-0.30;93.85
81545;BME280;70990;50.618;7.346;2024-01-15T03:34:22;96863.38;;;-0.39;94.11
81545;BME280;70990;50.618;7.346;2024-01-15T03:36:49;96864.75;;;-0.60;94.25
81545;BME280;70990;50.618;7.346;2024-01-15T03:39:16;96853.47;;;-0.65;94.39
81545;BME280;70990;50.618;7.346;2024-01-15T03:41:42;96855.75;;;-0.27;94.22
81545;BME280;70990;50.618;7.346;2024-01-15T03:44:09;96851.13;;;-0.23;93.18
81545;BME280;70990;50.618;7.346;2024-01-15T03:46:35;96853.19;;;-0.53;93.85
81545;BME280;70990;50.618;7.346;2024-01-15T03:49:02;96860.25;;;-0.45;93.42
81545;BME280;70990;50.618;7.346;2024-01-15T03:51:29;96848.03;;;-0.65;93.33
81545;BME280;70990;50.618;7.346;2024-01-15T03:53:56;96858.97;;;-0.58;92.92
81545;BME280;70990;50.618;7.346;2024-01-15T03:56:22;96854.63;;;-0.66;93.85
81545;BME280;70990;50.618;7.346;2024-01-15T03:58:49;96854.41;;;-0.47;93.91
81545;BME280;70990;50.618;7.346;2024-01-15T04:01:15;96848.50;;;-0.56;93.92
81545;BME280;70990;50.618;7.346;2024-01-15T04:03:42;96860.41;;;-0.68;93.65
81545;BME280;70990;50.618;7.346;2024-01-15T04:06:09;96837.47;;;-0.77;94.07
81545;BME280;70990;50.618;7.346;2024-01-15T04:08:35;96854.66;;;-0.63;93.44
81545;BME280;70990;50.618;7.346;2024-01-15T04:11:02;96842.31;;;-0.57;93.37
81545;BME280;70990;50.618;7.346;2024-01-15T04:13:32;96861.50;;;-0.76;93.20
81545;BME280;70990;50.618;7.346;2024-01-15T04:16:00;96845.53;;;-0.85;93.57
81545;BME280;70990;50.618;7.346;2024-01-15T04:18:26;96849.59;;;-0.64;92.95
81545;BME280;70990;50.618;7.346;2024-01-15T04:20:53;96844.97;;;-0.60;92.69
81545;BME280;70990;50.618;7.346;2024-01-15T04:23:20;96846.91;;;-0.61;92.92
81545;BME280;70990;50.618;7.346;2024-01-15T04:25:46;96840.63;;;-0.68;93.05
81545;BME280;70990;50.618;7.346;2024-01-15T04:28:13;96847.34;;;-0.55;92.17
81545;BME280;70990;50.618;7.346;2024-01-15T04:30:39;96834.50;;;-0.62;92.54
81545;BME280;70990;50.618;7.346;2024-01-15T04:33:06;96835.84;;;-0.86;92.99
81545;BME280;70990;50.618;7.346;2024-01-15T04:35:34;96840.31;;;-0.63;93.49
81545;BME280;70990;50.618;7.346;2024-01-15T04:38:00;96838.25;;;-0.77;93.84
81545;BME280;70990;50.618;7.346;2024-01-15T04:40:27;96824.56;;;-0.47;92.20
81545;BME280;70990;50.618;7.346;2024-01-15T04:42:54;96823.19;;;-0.71;93.13
81545;BME280;70990;50.618;7.346;2024-01-15T04:45:21;96833.72;;;-0.62;93.10
81545;BME280;70990;50.618;7.346;2024-01-15T04:47:47;96833.84;;;-0.48;92.72
81545;BME280;70990;50.618;7.346;2024-01-15T04:50:14;96824.63;;;-0.40;91.97
81545;BME280;70990;50.618;7.346;2024-01-15T04:52:41;96815.00;;;-0.74;92.13
81545;BME280;70990;50.618;7.346;2024-01-15T04:55:10;96819.53;;;-0.89;93.56
81545;BME280;70990;50.618;7.346;2024-01-15T04:57:36;96824.22;;;-0.86;93.26
81545;BME280;70990;50.618;7.346;2024-01-15T05:00:03;96818.06;;;-0.79;93.49
81545;BME280;70990;50.618;7.346;2024-01-15T05:02:30;96812.84;;;-0.58;93.61
81545;BME280;70990;50.618;7.346;2024-01-15T05:04:56;96811.28;;;-0.63;93.10
81545;BME280;70990;50.618;7.346;2024-01-15T05:07:23;96820.94;;;-0.65;92.99
81545;BME280;70990;50.618;7.346;2024-01-15T05:09:49;96818.94;;;-0.72;94.08
81545;BME280;70990;50.618;7.346;2024-01-15T05:12:16;96815.28;;;-0.46;93.28
81545;BME280;70990;50.618;7.346;2024-01-15T05:14:42;96817.88;;;-0.60;93.34
81545;BME280;70990;50.618;7.346;2024-01-15T05:17:09;96808.09;;;-0.68;94.07
81545;BME280;70990;50.618;7.346;2024-01-15T05:19:37;96815.28;;;-0.46;92.90
81545;BME280;70990;50.618;7.346;2024-01-15T05:22:04;96823.38;;;-0.50;92.21
81545;BME280;70990;50.618;7.346;2024-01-15T05:24:30;96815.53;;;-0.62;92.90
81545;BME280;70990;50.618;7.346;2024-01-15T05:26:57;96804.28;;;-0.64;93.31
81545;BME280;70990;50.618;7.346;2024-01-15T05:29:23;96807.78;;;-0.63;92.47
81545;BME280;70990;50.618;7.346;2024-01-15T05:31:50;96804.00;;;-0.48;93.22
81545;BME280;70990;50.618;7.346;2024-01-15T05:34:16;96802.00;;;-0.58;92.11
81545;BME280;70990;50.618;7.346;2024-01-15T05:36:43;96801.59;;;-0.60;92.74
81545;BME280;70990;50.618;7.346;2024-01-15T05:39:09;96798.16;;;-0.57;92.32
81545;BME280;70990;50.618;7.346;2024-01-15T05:41:36;96798.81;;;-0.67;92.06
81545;BME280;70990;50.618;7.346;2024-01-15T05:44:03;96800.81;;;-0.61;92.65
81545;BME280;70990;50.618;7.346;2024-01-15T05:46:30;96799.72;;;-0.53;93.14
81545;BME280;70990;50.618;7.346;2024-01-15T05:48:56;96795.09;;;-0.49;92.63
81545;BME280;70990;50.618;7.346;2024-01-15T05:51:23;96794.88;;;-0.73;93.27
81545;BME280;70990;50.618;7.346;2024-01-15T05:53:50;96795.72;;;-0.69;93.60
81545;BME280;70990;50.618;7.346;2024-01-15T05:56:18;96793.31;;;-0.78;94.07
81545;BME280;70990;50.618;7.346;2024-01-15T05:58:44;96808.09;;;-0.72;94.53
81545;BME280;70990;50.618;7.346;2024-01-15T06:01:11;96801.88;;;-0.72;93.98
81545;BME280;70990;50.618;7.346;2024-01-15T06:03:37;96796.44;;;-0.76;93.78
81545;BME280;70990;50.618;7.346;2024-01-15T06:06:04;96810.34;;;-0.77;93.84
81545;BME280;70990;50.618;7.346;2024-01-15T06:08:31;96803.50;;;-0.64;94.22
81545;BME280;70990;50.618;7.346;2024-01-15T06:10:57;96805.28;;;-0.38;93.12
81545;BME280;70990;50.618;7.346;2024-01-15T06:13:27;96798.78;;;-0.71;93.58
81545;BME280;70990;50.618;7.346;2024-01-15T06:15:53;96798.22;;;-0.50;93.95
81545;BME280;70990;50.618;7.346;2024-01-15T06:18:20;96793.59;;;-0.87;94.22
81545;BME280;70990;50.618;7.346;2024-01-15T06:20:47;96807.28;;;-0.76;94.80
81545;BME280;70990;50.618;7.346;2024-01-15T06:23:13;96803.94;;;-0.55;93.64
81545;BME280;70990;50.618;7.346;2024-01-15T06:25:40;96797.38;;;-0.54;94.11
81545;BME280;70990;50.618;7.346;2024-01-15T06:28:06;96805.63;;;-0.88;95.50
81545;BME280;70990;50.618;7.346;2024-01-15T06:30:33;96798.47;;;-0.62;95.38
81545;BME280;70990;50.618;7.346;2024-01-15T06:33:00;96794.59;;;-0.61;93.94
81545;BME280;70990;50.618;7.346;2024-01-15T06:35:27;96795.66;;;-0.76;93.75
81545;BME280;70990;50.618;7.346;2024-01-15T06:37:53;96794.50;;;-0.75;94.55
81545;BME280;70990;50.618;7.346;2024-01-15T06:40:20;96797.22;;;-0.72;93.96
81545;BME280;70990;50.618;7.346;2024-01-15T06:42:47;96783.97;;;-0.84;93.98
81545;BME280;70990;50.618;7.346;2024-01-15T06:45:13;96789.38;;;-0.84;95.11
81545;BME280;70990;50.618;7.346;2024-01-15T06:47:40;96782.88;;;-0.76;95.22
81545;BME280;70990;50.618;7.346;2024-01-15T06:50:07;96797.16;;;-0.83;94.55
81545;BME280;70990;50.618;7.346;2024-01-15T06:52:33;96782.44;;;-0.82;94.44
81545;BME280;70990;50.618;7.346;2024-01-15T06:55:00;96783.44;;;-0.97;94.48
81545;BME280;70990;50.618;7.346;2024-01-15T06:57:26;96787.78;;;-0.89;94.79
81545;BME280;70990;50.618;7.346;2024-01-15T06:59:53;96788.16;;;-0.90;94.28
81545;BME280;70990;50.618;7.346;2024-01-15T07:02:19;96764.63;;;-0.83;94.58
81545;BME280;70990;50.618;7.346;2024-01-15T07:04:46;96770.69;;;-0.96;94.45
81545;BME280;70990;50.618;7.346;2024-01-15T07:07:13;96770.84;;;-0.75;94.31
81545;BME280;70990;50.618;7.346;2024-01-15T07:09:40;96764.72;;;-0.68;93.51
81545;BME280;70990;50.618;7.346;2024-01-15T07:12:07;96772.09;;;-0.69;93.27
81545;BME280;70990;50.618;7.346;2024-01-15T07:14:33;96773.97;;;-0.76;93.19
81545;BME280;70990;50.618;7.346;2024-01-15T07:17:00;96775.13;;;-0.74;93.55
81545;BME280;70990;50.618;7.346;2024-01-15T07:19:26;96767.84;;;-0.66;93.92
81545;BME280;70990;50.618;7.346;2024-01-15T07:21:53;96775.25;;;-0.63;93.42
81545;BME280;70990;50.618;7.346;2024-01-15T07:24:22;96774.88;;;-0.58;94.08
81545;BME280;70990;50.618;7.346;2024-01-15T07:26:51;96770.84;;;-0.78;93.62
81545;BME280;70990;50.618;7.346;2024-01-15T07:29:18;96784.66;;;-0.91;94.15
81545;BME280;70990;50.618;7.346;2024-01-15T07:31:51;96782.31;;;-0.96;95.12
81545;BME280;70990;50.618;7.346;2024-01-15T07:34:18;96772.00;;;-0.79;95.19
81545;BME280;70990;50.618;7.346;2024-01-15T07:36:45;96770.03;;;-0.83;94.92
81545;BME280;70990;50.618;7.346;2024-01-15T07:39:12;96771.75;;;-0.64;94.06
81545;BME280;70990;50.618;7.346;2024-01-15T07:41:38;96767.03;;;-0.70;94.60
81545;BME280;70990;50.618;7.346;2024-01-15T07:44:06;96768.50;;;-0.80;95.02
81545;BME280;70990;50.618;7.346;2024-01-15T07:46:32;96766.25;;;-0.71;94.52
81545;BME280;70990;50.618;7.346;2024-01-15T07:48:59;96776.31;;;-0.71;93.66
81545;BME280;70990;50.618;7.346;2024-01-15T07:51:26;96774.88;;;-0.58;94.02
81545;BME280;70990;50.618;7.346;2024-01-15T07:53:53;96770.13;;;-0.72;94.50
81545;BME280;70990;50.618;7.346;2024-01-15T07:56:20;96766.69;;;-0.65;93.32
81545;BME280;70990;50.618;7.346;2024-01-15T07:58:46;96768.69;;;-0.55;92.98
81545;BME280;70990;50.618;7.346;2024-01-15T08:01:14;96776.59;;;-0.84;92.79
81545;BME280;70990;50.618;7.346;2024-01-15T08:03:41;96769.38;;;-0.69;93.02
81545;BME280;70990;50.618;7.346;2024-01-15T08:06:08;96769.91;;;-0.49;92.38
81545;BME280;70990;50.618;7.346;2024-01-15T08:08:35;96767.97;;;-0.52;92.51
81545;BME280;70990;50.618;7.346;2024-01-15T08:11:02;96761.91;;;-0.79;92.94
81545;BME280;70990;50.618;7.346;2024-01-15T08:13:28;96761.22;;;-0.72;92.85
81545;BME280;70990;50.618;7.346;2024-01-15T08:15:55;96770.09;;;-0.75;92.62
81545;BME280;70990;50.618;7.346;2024-01-15T08:18:22;96761.63;;;-0.67;92.75
81545;BME280;70990;50.618;7.346;2024-01-15T08:20:50;96769.84;;;-0.56;92.50
81545;BME280;70990;50.618;7.346;2024-01-15T08:23:17;96767.97;;;-0.52;92.10
81545;BME280;70990;50.618;7.346;2024-01-15T08:25:43;96762.00;;;-0.68;92.10
81545;BME280;70990;50.618;7.346;2024-01-15T08:28:09;96769.56;;;-0.44;91.78
81545;BME280;70990;50.618;7.346;2024-01-15T08:30:36;96764.16;;;-0.41;90.03
81545;BME280;70990;50.618;7.346;2024-01-15T08:33:03;96764.09;;;-0.51;89.96
81545;BME280;70990;50.618;7.346;2024-01-15T08:35:40;96769.56;;;-0.44;89.95
81545;BME280;70990;50.618;7.346;2024-01-15T08:38:06;96761.44;;;-0.41;90.02
81545;BME280;70990;50.618;7.346;2024-01-15T08:40:32;96771.22;;;-0.29;89.31
81545;BME280;70990;50.618;7.346;2024-01-15T08:42:59;96772.84;;;-0.17;88.70
81545;BME280;70990;50.618;7.346;2024-01-15T08:45:26;96770.78;;;-0.38;89.11
81545;BME280;70990;50.618;7.346;2024-01-15T08:47:55;96766.97;;;-0.26;88.64
81545;BME280;70990;50.618;7.346;2024-01-15T08:50:22;96778.63;;;-0.26;88.89
81545;BME280;70990;50.618;7.346;2024-01-15T08:52:49;96761.88;;;-0.35;88.26
81545;BME280;70990;50.618;7.346;2024-01-15T08:55:16;96773.66;;;-0.10;88.05
81545;BME280;70990;50.618;7.346;2024-01-15T08:57:42;96775.19;;;-0.16;87.10
81545;BME280;70990;50.618;7.346;2024-01-15T09:00:10;96784.56;;;-0.03;87.01
81545;BME280;70990;50.618;7.346;2024-01-15T09:02:36;96776.28;;;-0.27;87.64
81545;BME280;70990;50.618;7.346;2024-01-15T09:05:03;96773.97;;;-0.25;86.82
81545;BME280;70990;50.618;7.346;2024-01-15T09:07:30;96768.69;;;-0.01;86.30
81545;BME280;70990;50.618;7.346;2024-01-15T09:09:56;96768.38;;;0.15;85.53
81545;BME280;70990;50.618;7.346;2024-01-15T09:12:23;96769.00;;;-0.13;86.49
81545;BME280;70990;50.618;7.346;2024-01-15T09:14:49;96772.94;;;-0.03;85.79
81545;BME280;70990;50.618;7.346;2024-01-15T09:17:16;96771.69;;;-0.20;86.39
81545;BME280;70990;50.618;7.346;2024-01-15T09:19:42;96773.66;;;-0.10;86.59
81545;BME280;70990;50.618;7.346;2024-01-15T09:22:09;96772.88;;;-0.14;85.80
81545;BME280;70990;50.618;7.346;2024-01-15T09:24:36;96781.41;;;-0.12;86.14
81545;BME280;70990;50.618;7.346;2024-01-15T09:27:03;96778.31;;;-0.14;85.80
81545;BME280;70990;50.618;7.346;2024-01-15T09:29:29;96777.16;;;-0.06;85.98
81545;BME280;70990;50.618;7.346;2024-01-15T09:31:56;96777.94;;;-0.09;85.96
81545;BME280;70990;50.618;7.346;2024-01-15T09:34:22;96787.28;;;0.01;84.78
81545;BME280;70990;50.618;7.346;2024-01-15T09:36:49;96786.56;;;0.08;84.76
81545;BME280;70990;50.618;7.346;2024-01-15T09:39:16;96772.09;;;-0.11;85.26
81545;BME280;70990;50.618;7.346;2024-01-15T09:41:43;96769.38;;;-0.11;85.71
81545;BME280;70990;50.618;7.346;2024-01-15T09:44:10;96775.22;;;-0.09;85.02
81545;BME280;70990;50.618;7.346;2024-01-15T09:46:37;96783.84;;;0.08;85.99
81545;BME280;70990;50.618;7.346;2024-01-15T09:49:04;96780.19;;;-0.18;86.49
81545;BME280;70990;50.618;7.346;2024-01-15T09:51:31;96781.84;;;-0.03;86.95
81545;BME280;70990;50.618;7.346;2024-01-15T09:53:58;96776.84;;;0.07;86.41
81545;BME280;70990;50.618;7.346;2024-01-15T09:56:25;96774.72;;;-0.25;87.55
81545;BME280;70990;50.618;7.346;2024-01-15T09:58:51;96765.22;;;0.03;86.44
81545;BME280;70990;50.618;7.346;2024-01-15T10:01:20;96765.19;;;-0.01;87.74
81545;BME280;70990;50.618;7.346;2024-01-15T10:03:47;96769.44;;;-0.04;87.13
81545;BME280;70990;50.618;7.346;2024-01-15T10:06:17;96766.28;;;-0.13;88.79
81545;BME280;70990;50.618;7.346;2024-01-15T10:08:50;96766.97;;;-0.26;89.96
81545;BME280;70990;50.618;7.346;2024-01-15T10:11:16;96767.22;;;-0.46;91.60
81545;BME280;70990;50.618;7.346;2024-01-15T10:13:45;96763.53;;;-0.16;91.38
81545;BME280;70990;50.618;7.346;2024-01-15T10:16:15;96766.56;;;-0.25;91.33
81545;BME280;70990;50.618;7.346;2024-01-15T10:18:42;96761.47;;;-0.37;91.91
81545;BME280;70990;50.618;7.346;2024-01-15T10:21:08;96753.69;;;-0.42;92.64
81545;BME280;70990;50.618;7.346;2024-01-15T10:23:35;96762.47;;;-0.63;93.74
81545;BME280;70990;50.618;7.346;2024-01-15T10:26:02;96767.59;;;-0.51;94.33
81545;BME280;70990;50.618;7.346;2024-01-15T10:28:30;96760.97;;;-0.57;94.68
81545;BME280;70990;50.618;7.346;2024-01-15T10:30:58;96759.88;;;-0.45;95.09
81545;BME280;70990;50.618;7.346;2024-01-15T10:33:25;96761.38;;;-0.51;94.28
81545;BME280;70990;50.618;7.346;2024-01-15T10:35:57;96766.38;;;-0.57;94.71
81545;BME280;70990;50.618;7.346;2024-01-15T10:38:24;96764.03;;;-0.58;95.40
81545;BME280;70990;50.618;7.346;2024-01-15T10:40:52;96769.91;;;-0.49;95.77
81545;BME280;70990;50.618;7.346;2024-01-15T10:43:19;96770.00;;;-0.38;95.27
81545;BME280;70990;50.618;7.346;2024-01-15T10:45:46;96766.53;;;-0.35;94.72
81545;BME280;70990;50.618;7.346;2024-01-15T10:48:14;96763.41;;;-0.37;94.51
81545;BME280;70990;50.618;7.346;2024-01-15T10:50:42;96771.94;;;-0.35;94.67
81545;BME280;70990;50.618;7.346;2024-01-15T10:53:14;96767.72;;;-0.29;93.73
81545;BME280;70990;50.618;7.346;2024-01-15T10:55:42;96767.38;;;-0.24;93.73
81545;BME280;70990;50.618;7.346;2024-01-15T10:58:09;96771.25;;;-0.25;93.72
81545;BME280;70990;50.618;7.346;2024-01-15T11:00:36;96765.53;;;-0.10;93.70
81545;BME280;70990;50.618;7.346;2024-01-15T11:03:05;96752.28;;;-0.22;93.19
81545;BME280;70990;50.618;7.346;2024-01-15T11:05:44;96758.94;;;-0.09;93.60
81545;BME280;70990;50.618;7.346;2024-01-15T11:08:11;96755.72;;;-0.32;93.86
81545;BME280;70990;50.618;7.346;2024-01-15T11:10:43;96776.69;;;-0.25;94.26
81545;BME280;70990;50.618;7.346;2024-01-15T11:13:14;96761.69;;;-0.60;100.00
81545;BME280;70990;50.618;7.346;2024-01-15T11:16:08;96760.34;;;-0.32;98.69
81545;BME280;70990;50.618;7.346;2024-01-15T11:18:40;96764.22;;;-0.30;96.84
81545;BME280;70990;50.618;7.346;2024-01-15T11:23:45;96758.00;;;-0.34;94.87
81545;BME280;70990;50.618;7.346;2024-01-15T11:29:05;96768.06;;;-0.38;94.79
81545;BME280;70990;50.618;7.346;2024-01-15T11:34:09;96760.31;;;-0.36;94.76
81545;BME280;70990;50.618;7.346;2024-01-15T11:41:59;96776.59;;;-0.36;95.40
81545;BME280;70990;50.618;7.346;2024-01-15T11:44:26;96767.28;;;-0.38;94.65
81545;BME280;70990;50.618;7.346;2024-01-15T11:50:01;96787.66;;;-0.08;94.29
81545;BME280;70990;50.618;7.346;2024-01-15T11:52:32;96778.63;;;-0.19;95.20
81545;BME280;70990;50.618;7.346;2024-01-15T11:55:17;96780.44;;;-0.44;95.58
81545;BME280;70990;50.618;7.346;2024-01-15T11:57:50;96787.13;;;-0.27;95.60
81545;BME280;70990;50.618;7.346;2024-01-15T12:00:17;96789.06;;;-0.28;95.99
81545;BME280;70990;50.618;7.346;2024-01-15T12:02:45;96782.75;;;-0.43;95.30
81545;BME280;70990;50.618;7.346;2024-01-15T12:05:13;96789.78;;;-0.38;94.97
81545;BME280;70990;50.618;7.346;2024-01-15T12:07:41;96784.66;;;-0.50;94.90
81545;BME280;70990;50.618;7.346;2024-01-15T12:10:12;96787.47;;;-0.32;95.53
81545;BME280;70990;50.618;7.346;2024-01-15T12:12:59;96787.06;;;-0.38;95.39
81545;BME280;70990;50.618;7.346;2024-01-15T12:15:27;96784.38;;;-0.31;95.51
81545;BME280;70990;50.618;7.346;2024-01-15T12:17:56;96787.19;;;-0.17;94.61
81545;BME280;70990;50.618;7.346;2024-01-15T12:20:24;96782.25;;;-0.01;94.87
81545;BME280;70990;50.618;7.346;2024-01-15T12:22:51;96799.91;;;-0.28;94.75
81545;BME280;70990;50.618;7.346;2024-01-15T12:25:29;96789.78;;;-0.31;95.18
81545;BME280;70990;50.618;7.346;2024-01-15T12:27:56;96784.25;;;-0.49;95.70
81545;BME280;70990;50.618;7.346;2024-01-15T12:30:23;96797.94;;;-0.31;95.12
81545;BME280;70990;50.618;7.346;2024-01-15T12:32:50;96789.97;;;-0.06;94.92
81545;BME280;70990;50.618;7.346;2024-01-15T12:35:17;96792.25;;;-0.15;94.96
81545;BME280;70990;50.618;7.346;2024-01-15T12:37:44;96797.31;;;-0.14;94.70
81545;BME280;70990;50.618;7.346;2024-01-15T12:40:10;96794.53;;;-0.21;94.04
81545;BME280;70990;50.618;7.346;2024-01-15T12:42:37;96796.06;;;-0.23;94.31
81545;BME280;70990;50.618;7.346;2024-01-15T12:45:06;96790.56;;;-0.34;94.45
81545;BME280;70990;50.618;7.346;2024-01-15T12:47:33;96789.31;;;-0.47;94.86
81545;BME280;70990;50.618;7.346;2024-01-15T12:49:59;96782.72;;;-0.46;94.62
81545;BME280;70990;50.618;7.346;2024-01-15T12:52:41;96796.16;;;-0.13;93.80
81545;BME280;70990;50.618;7.346;2024-01-15T12:55:09;96789.53;;;-0.15;92.24
81545;BME280;70990;50.618;7.346;2024-01-15T12:57:36;96797.06;;;0.13;92.65
81545;BME280;70990;50.618;7.346;2024-01-15T13:00:04;96803.22;;;0.03;91.89
81545;BME280;70990;50.618;7.346;2024-01-15T13:02:31;96797.78;;;0.03;91.22
81545;BME280;70990;50.618;7.346;2024-01-15T13:04:58;96804.00;;;0.07;90.57
81545;BME280;70990;50.618;7.346;2024-01-15T13:07:26;96800.75;;;-0.17;91.18
81545;BME280;70990;50.618;7.346;2024-01-15T13:09:52;96806.38;;;0.12;90.64
81545;BME280;70990;50.618;7.346;2024-01-15T13:12:20;96805.50;;;0.00;91.17
81545;BME280;70990;50.618;7.346;2024-01-15T13:14:47;96799.72;;;-0.02;90.79
81545;BME280;70990;50.618;7.346;2024-01-15T13:17:14;96803.84;;;-0.22;90.42